createdAt,value
2019-04-20T00:02:19.331Z,15.23
2019-04-20T00:04:49.951Z,15.03
2019-04-20T00:07:24.630Z,18.20
2019-04-20T00:10:03.658Z,18.83
2019-04-20T00:12:36.854Z,20.77
2019-04-20T00:15:03.003Z,22.80
2019-04-20T00:17:41.205Z,24.73
2019-04-20T00:20:16.405Z,23.10
2019-04-20T00:23:22.657Z,23.60
2019-04-20T00:26:17.123Z,22.57
2019-04-20T00:29:04.457Z,14.70
2019-04-20T00:31:32.228Z,18.67
2019-04-20T00:33:59.151Z,17.83
2019-04-20T00:36:22.316Z,15.73
2019-04-20T00:38:58.246Z,11.90
2019-04-20T00:41:27.802Z,12.13
2019-04-20T00:44:09.742Z,11.90
2019-04-20T00:46:41.969Z,17.37
2019-04-20T00:49:20.647Z,24.47
2019-04-20T00:52:05.091Z,19.57
2019-04-20T00:54:14.326Z,22.00
2019-04-20T00:56:46.220Z,17.57
2019-04-20T00:59:32.359Z,12.23
2019-04-20T01:02:10.597Z,11.23
2019-04-20T01:04:47.664Z,26.17
2019-04-20T01:07:28.927Z,17.83
2019-04-20T01:10:08.965Z,35.60
2019-04-20T01:12:42.802Z,17.87
2019-04-20T01:15:25.550Z,20.03
2019-04-20T01:17:48.677Z,12.90
2019-04-20T01:20:22.693Z,12.27
2019-04-20T01:23:01.939Z,11.10
2019-04-20T01:25:35.290Z,12.13
2019-04-20T01:28:19.367Z,11.97
2019-04-20T01:30:43.180Z,11.63
2019-04-20T01:33:25.886Z,11.93
2019-04-20T01:35:56.622Z,12.37
2019-04-20T01:38:38.809Z,12.07
2019-04-20T01:40:52.701Z,11.87
2019-04-20T01:43:24.790Z,10.83
2019-04-20T01:46:01.372Z,14.40
2019-04-20T01:48:34.024Z,12.80
2019-04-20T01:51:13.382Z,11.30
2019-04-20T01:53:58.489Z,14.50
2019-04-20T01:56:32.947Z,13.63
2019-04-20T01:59:20.187Z,25.33
2019-04-20T02:02:08.042Z,19.70
2019-04-20T02:04:52.571Z,18.17
2019-04-20T02:07:28.210Z,21.47
2019-04-20T02:10:02.807Z,16.90
2019-04-20T02:12:34.570Z,14.50
2019-04-20T02:15:07.606Z,17.37
2019-04-20T02:17:46.137Z,13.50
2019-04-20T02:20:33.122Z,16.80
2019-04-20T02:22:59.413Z,11.07
2019-04-20T02:25:20.649Z,12.50
2019-04-20T02:27:57.965Z,12.13
2019-04-20T02:33:42.803Z,20.07
2019-04-20T02:36:29.958Z,17.90
2019-04-20T02:41:57.531Z,16.47
2019-04-20T02:44:23.873Z,16.00
2019-04-20T02:46:57.515Z,14.80
2019-04-20T02:49:40.344Z,18.07
2019-04-20T03:02:00.331Z,18.57
2019-04-20T03:04:28.343Z,27.43
2019-04-20T03:07:06.857Z,19.57
2019-04-20T03:09:47.229Z,11.60
2019-04-20T03:12:23.539Z,12.60
2019-04-20T03:14:47.815Z,12.07
2019-04-20T03:17:29.698Z,11.47
2019-04-20T03:19:52.526Z,10.77
2019-04-20T03:23:01.099Z,12.13
2019-04-20T03:25:15.799Z,12.27
2019-04-20T03:28:02.682Z,14.33
2019-04-20T03:33:41.319Z,10.90
2019-04-20T03:36:07.093Z,11.17
2019-04-20T03:38:26.247Z,11.27
2019-04-20T03:40:56.602Z,10.07
2019-04-20T03:43:15.995Z,11.20
2019-04-20T03:45:57.261Z,10.90
2019-04-20T03:48:41.386Z,10.40
2019-04-20T03:51:22.099Z,10.90
2019-04-20T03:54:07.578Z,9.77
2019-04-20T03:56:54.112Z,11.30
2019-04-20T03:59:39.502Z,9.90
2019-04-20T04:02:42.385Z,11.30
2019-04-20T04:05:08.507Z,10.27
2019-04-20T04:07:36.468Z,12.53
2019-04-20T04:10:16.945Z,12.07
2019-04-20T04:13:14.789Z,11.87
2019-04-20T04:15:54.057Z,11.07
2019-04-20T04:18:29.875Z,11.90
2019-04-20T04:21:03.067Z,12.43
2019-04-20T04:23:45.848Z,13.53
2019-04-20T04:26:24.552Z,13.10
2019-04-20T04:28:53.789Z,12.93
2019-04-20T04:31:33.315Z,12.60
2019-04-20T04:34:06.265Z,12.93
2019-04-20T04:36:38.281Z,13.07
2019-04-20T04:39:15.422Z,13.63
2019-04-20T04:41:39.767Z,12.73
2019-04-20T04:44:10.777Z,12.20
2019-04-20T04:46:33.961Z,12.93
2019-04-20T04:49:14.278Z,16.57
2019-04-20T04:51:47.465Z,15.93
2019-04-20T04:54:21.972Z,14.37
2019-04-20T04:56:46.266Z,12.87
2019-04-20T04:59:19.292Z,12.83
2019-04-20T05:01:54.945Z,12.23
2019-04-20T05:05:04.926Z,13.00
2019-04-20T05:07:39.799Z,14.00
2019-04-20T05:10:01.289Z,9.93
2019-04-20T05:12:35.404Z,10.10
2019-04-20T05:15:15.976Z,10.87
2019-04-20T05:18:02.054Z,11.50
2019-04-20T05:20:43.803Z,10.60
2019-04-20T05:23:28.010Z,14.30
2019-04-20T05:26:29.986Z,11.03
2019-04-20T05:28:59.014Z,9.50
2019-04-20T05:31:30.901Z,8.83
2019-04-20T05:34:21.835Z,8.40
2019-04-20T05:36:50.605Z,10.77
2019-04-20T05:39:29.511Z,12.60
2019-04-20T05:41:53.151Z,14.93
2019-04-20T05:44:41.342Z,9.93
2019-04-20T05:47:12.323Z,13.83
2019-04-20T05:49:47.678Z,17.70
2019-04-20T05:52:29.120Z,10.70
2019-04-20T05:54:56.183Z,10.23
2019-04-20T05:57:32.934Z,11.57
2019-04-20T06:00:13.860Z,11.20
2019-04-20T06:02:36.689Z,8.30
2019-04-20T06:05:28.852Z,7.40
2019-04-20T06:07:42.430Z,7.77
2019-04-20T06:10:20.832Z,8.33
2019-04-20T06:12:51.755Z,8.30
2019-04-20T06:15:56.500Z,7.93
2019-04-20T06:18:32.753Z,7.53
2019-04-20T06:21:19.765Z,7.97
2019-04-20T06:24:15.636Z,7.60
2019-04-20T06:29:13.708Z,6.80
2019-04-20T06:31:52.784Z,17.67
2019-04-20T06:34:34.382Z,10.50
2019-04-20T06:36:57.370Z,7.23
2019-04-20T06:42:14.940Z,7.20
2019-04-20T06:44:57.811Z,6.67
2019-04-20T06:47:16.230Z,6.87
2019-04-20T06:49:42.485Z,7.77
2019-04-20T06:52:42.489Z,8.30
2019-04-20T06:55:19.809Z,7.07
2019-04-20T06:57:56.277Z,7.90
2019-04-20T07:00:25.752Z,8.50
2019-04-20T07:02:58.983Z,10.53
2019-04-20T07:05:39.508Z,10.53
2019-04-20T07:08:28.967Z,9.73
2019-04-20T07:10:53.149Z,16.50
2019-04-20T07:13:11.578Z,17.23
2019-04-20T07:15:53.103Z,17.27
2019-04-20T07:18:35.750Z,28.80
2019-04-20T07:21:16.055Z,21.80
2019-04-20T07:23:48.226Z,37.57
2019-04-20T07:26:22.439Z,19.70
2019-04-20T07:29:01.441Z,36.40
2019-04-20T07:31:24.661Z,12.63
2019-04-20T07:34:05.631Z,24.00
2019-04-20T07:36:37.831Z,22.17
2019-04-20T07:39:13.310Z,15.20
2019-04-20T07:41:50.532Z,8.03
2019-04-20T07:44:18.698Z,11.47
2019-04-20T07:47:02.814Z,24.97
2019-04-20T07:49:24.749Z,12.00
2019-04-20T07:51:41.691Z,13.80
2019-04-20T07:54:40.153Z,13.97
2019-04-20T07:57:03.531Z,12.67
2019-04-20T07:59:30.543Z,7.43
2019-04-20T08:02:42.568Z,8.40
2019-04-20T08:05:10.734Z,6.73
2019-04-20T08:07:45.266Z,2.77
2019-04-20T08:10:09.790Z,7.30
2019-04-20T08:13:02.233Z,6.03
2019-04-20T08:15:43.087Z,3.70
2019-04-20T08:18:07.674Z,4.63
2019-04-20T08:20:43.127Z,4.13
2019-04-20T08:23:18.580Z,7.43
2019-04-20T08:25:39.823Z,8.37
2019-04-20T08:28:16.698Z,5.30
2019-04-20T08:31:17.895Z,9.83
2019-04-20T08:34:07.516Z,4.93
2019-04-20T08:36:37.413Z,8.67
2019-04-20T08:39:23.205Z,5.20
2019-04-20T08:41:37.279Z,5.80
2019-04-20T08:44:36.912Z,4.20
2019-04-20T08:47:01.333Z,6.23
2019-04-20T08:49:26.347Z,5.23
2019-04-20T08:52:05.914Z,8.07
2019-04-20T08:54:26.707Z,8.40
2019-04-20T08:56:49.874Z,8.67
2019-04-20T08:59:16.731Z,6.03
2019-04-20T09:01:48.969Z,17.63
2019-04-20T09:04:32.998Z,6.50
2019-04-20T09:07:05.483Z,3.53
2019-04-20T09:09:52.712Z,4.40
2019-04-20T09:12:14.474Z,5.23
2019-04-20T09:14:38.452Z,6.90
2019-04-20T09:17:39.689Z,3.67
2019-04-20T09:20:14.704Z,2.40
2019-04-20T09:23:02.204Z,78.70
2019-04-20T09:28:23.845Z,2.50
2019-04-20T09:31:02.229Z,4.07
2019-04-20T09:34:02.780Z,3.17
2019-04-20T09:36:37.523Z,1.93
2019-04-20T09:39:31.594Z,3.80
2019-04-20T09:42:11.490Z,2.10
2019-04-20T09:44:48.795Z,2.40
2019-04-20T09:47:23.810Z,2.60
2019-04-20T09:50:01.467Z,3.73
2019-04-20T09:52:38.152Z,2.83
2019-04-20T09:55:10.794Z,4.30
2019-04-20T09:57:51.265Z,2.30
2019-04-20T10:00:25.691Z,3.13
2019-04-20T10:02:41.257Z,2.77
2019-04-20T10:05:13.646Z,7.77
2019-04-20T10:07:48.431Z,14.70
2019-04-20T10:10:31.147Z,4.80
2019-04-20T10:12:54.212Z,2.10
2019-04-20T10:15:27.938Z,2.70
2019-04-20T10:17:59.680Z,2.40
2019-04-20T10:20:34.748Z,2.93
2019-04-20T10:23:05.021Z,2.33
2019-04-20T10:25:38.178Z,6.07
2019-04-20T10:28:11.676Z,4.17
2019-04-20T10:30:44.424Z,3.50
2019-04-20T10:33:17.623Z,2.63
2019-04-20T10:35:49.686Z,8.37
2019-04-20T10:38:25.532Z,2.60
2019-04-20T10:41:08.173Z,1.97
2019-04-20T10:43:30.934Z,6.47
2019-04-20T10:46:02.799Z,4.30
2019-04-20T10:48:40.266Z,13.30
2019-04-20T10:51:08.470Z,28.17
2019-04-20T10:53:42.397Z,1.80
2019-04-20T10:56:15.737Z,3.00
2019-04-20T10:58:47.733Z,5.42
2019-04-20T11:01:19.932Z,2.07
2019-04-20T11:03:52.371Z,9.55
2019-04-20T11:06:24.701Z,2.30
2019-04-20T11:08:56.667Z,2.65
2019-04-20T11:11:30.820Z,2.55
2019-04-20T11:14:08.351Z,2.75
2019-04-20T11:16:36.174Z,3.15
2019-04-20T11:19:09.442Z,3.90
2019-04-20T11:21:44.221Z,7.47
2019-04-20T11:24:16.420Z,3.75
2019-04-20T11:26:48.338Z,23.05
2019-04-20T11:29:20.374Z,2.55
2019-04-20T11:31:55.685Z,5.10
2019-04-20T11:34:31.425Z,10.70
2019-04-20T11:37:01.281Z,8.23
2019-04-20T11:39:34.840Z,7.00
2019-04-20T11:42:07.761Z,3.95
2019-04-20T11:44:42.410Z,7.92
2019-04-20T11:47:16.784Z,3.60
2019-04-20T11:49:49.386Z,4.03
2019-04-20T11:52:23.141Z,1.85
2019-04-20T11:54:55.240Z,22.62
2019-04-20T11:57:27.244Z,5.92
2019-04-20T11:59:59.356Z,9.50
2019-04-20T12:03:11.107Z,8.58
2019-04-20T12:05:41.502Z,2.55
2019-04-20T12:08:11.183Z,10.80
2019-04-20T12:10:48.372Z,5.92
2019-04-20T12:13:16.788Z,4.10
2019-04-20T12:15:49.682Z,2.80
2019-04-20T12:18:21.679Z,2.12
2019-04-20T12:20:54.808Z,2.05
2019-04-20T12:23:26.708Z,3.72
2019-04-20T12:25:59.829Z,3.85
2019-04-20T12:28:32.148Z,2.10
2019-04-20T12:31:12.878Z,8.53
2019-04-20T12:33:37.916Z,5.30
2019-04-20T12:36:12.258Z,3.80
2019-04-20T12:38:46.278Z,4.17
2019-04-20T12:41:30.420Z,5.12
2019-04-20T12:43:52.008Z,6.10
2019-04-20T12:46:25.175Z,5.50
2019-04-20T12:48:57.882Z,3.50
2019-04-20T12:51:33.588Z,5.20
2019-04-20T12:54:04.690Z,6.50
2019-04-20T12:56:38.373Z,3.15
2019-04-20T12:59:11.613Z,2.10
2019-04-20T13:01:43.851Z,1.72
2019-04-20T13:04:16.465Z,3.10
2019-04-20T13:06:49.309Z,4.75
2019-04-20T13:09:21.299Z,2.27
2019-04-20T13:12:08.965Z,16.77
2019-04-20T13:15:06.844Z,8.58
2019-04-20T13:17:40.050Z,2.35
2019-04-20T13:20:12.338Z,2.65
2019-04-20T13:22:46.528Z,6.12
2019-04-20T13:25:19.066Z,3.42
2019-04-20T13:27:52.744Z,2.60
2019-04-20T13:30:25.959Z,2.20
2019-04-20T13:32:59.423Z,4.15
2019-04-20T13:35:32.200Z,3.98
2019-04-20T13:38:05.309Z,2.80
2019-04-20T13:40:37.684Z,7.87
2019-04-20T13:43:10.037Z,5.08
2019-04-20T13:45:42.651Z,9.83
2019-04-20T13:48:15.135Z,12.88
2019-04-20T13:50:47.162Z,4.78
2019-04-20T13:53:19.287Z,8.60
2019-04-20T13:55:51.918Z,5.22
2019-04-20T13:58:41.322Z,4.65
2019-04-20T14:01:31.009Z,9.63
2019-04-20T14:04:06.106Z,3.95
2019-04-20T14:06:39.370Z,5.10
2019-04-20T14:09:11.867Z,3.02
2019-04-20T14:11:45.367Z,2.75
2019-04-20T14:14:17.303Z,2.25
2019-04-20T14:16:49.233Z,1.65
2019-04-20T14:19:23.216Z,2.65
2019-04-20T14:21:56.346Z,7.65
2019-04-20T14:24:30.848Z,58.78
2019-04-20T14:27:03.583Z,2.33
2019-04-20T14:29:36.955Z,4.83
2019-04-20T14:32:11.820Z,7.50
2019-04-20T14:34:42.960Z,6.95
2019-04-20T14:37:15.084Z,5.15
2019-04-20T14:39:48.064Z,25.23
2019-04-20T14:42:30.171Z,10.18
2019-04-20T14:44:55.500Z,6.15
2019-04-20T14:47:27.925Z,6.37
2019-04-20T14:50:02.869Z,5.58
2019-04-20T14:52:33.574Z,6.47
2019-04-20T14:55:06.017Z,3.70
2019-04-20T14:57:39.519Z,9.98
2019-04-20T15:00:27.810Z,7.65
2019-04-20T15:03:10.128Z,3.95
2019-04-20T15:05:43.953Z,2.62
2019-04-20T15:08:18.553Z,3.60
2019-04-20T15:10:52.008Z,2.75
2019-04-20T15:13:24.611Z,2.42
2019-04-20T15:15:56.862Z,3.98
2019-04-20T15:18:33.589Z,17.37
2019-04-20T15:21:07.022Z,4.97
2019-04-20T15:23:39.524Z,3.72
2019-04-20T15:26:12.728Z,2.55
2019-04-20T15:28:44.688Z,4.08
2019-04-20T15:31:16.634Z,3.70
2019-04-20T15:33:48.865Z,4.00
2019-04-20T15:36:22.086Z,3.40
2019-04-20T15:38:54.093Z,4.00
2019-04-20T15:41:27.343Z,8.63
2019-04-20T15:43:59.529Z,4.78
2019-04-20T15:46:34.400Z,6.47
2019-04-20T15:49:06.161Z,12.60
2019-04-20T15:51:38.018Z,32.38
2019-04-20T15:54:11.401Z,10.95
2019-04-20T15:56:52.681Z,12.47
2019-04-20T15:59:16.954Z,9.65
2019-04-20T16:01:55.606Z,20.70
2019-04-20T16:04:45.423Z,10.50
2019-04-20T16:07:19.216Z,9.25
2019-04-20T16:09:52.319Z,8.18
2019-04-20T16:12:24.761Z,9.70
2019-04-20T16:14:57.684Z,6.00
2019-04-20T16:17:32.776Z,12.43
2019-04-20T16:20:09.037Z,9.63
2019-04-20T16:22:36.852Z,6.58
2019-04-20T16:25:21.517Z,4.60
2019-04-20T16:27:53.863Z,4.17
2019-04-20T16:30:25.756Z,5.62
2019-04-20T16:32:58.721Z,4.65
2019-04-20T16:35:32.099Z,15.43
2019-04-20T16:38:04.412Z,14.00
2019-04-20T16:40:37.810Z,4.08
2019-04-20T16:43:17.983Z,3.85
2019-04-20T16:45:45.418Z,4.33
2019-04-20T16:48:18.035Z,3.98
2019-04-20T16:50:51.004Z,4.80
2019-04-20T16:53:22.962Z,6.12
2019-04-20T16:55:54.814Z,7.08
2019-04-20T16:58:28.017Z,8.45
2019-04-20T17:01:01.289Z,8.98
2019-04-20T17:03:45.970Z,16.17
2019-04-20T17:06:08.328Z,6.77
2019-04-20T17:08:42.738Z,10.93
2019-04-20T17:11:16.002Z,8.35
2019-04-20T17:13:52.723Z,8.35
2019-04-20T17:16:21.910Z,7.10
2019-04-20T17:18:55.228Z,6.95
2019-04-20T17:21:30.528Z,5.23
2019-04-20T17:24:01.626Z,3.80
2019-04-20T17:26:40.997Z,6.17
2019-04-20T17:29:18.072Z,7.47
2019-04-20T17:31:57.866Z,13.37
2019-04-20T17:34:47.626Z,10.85
2019-04-20T17:37:06.757Z,8.60
2019-04-20T17:40:04.148Z,9.50
2019-04-20T17:42:32.466Z,9.50
2019-04-20T17:44:58.501Z,10.83
2019-04-20T17:47:44.800Z,12.13
2019-04-20T17:50:19.128Z,9.30
2019-04-20T17:52:52.299Z,6.90
2019-04-20T17:55:20.640Z,14.67
2019-04-20T17:57:43.510Z,18.07
2019-04-20T18:00:20.696Z,18.67
2019-04-20T18:03:12.088Z,18.10
2019-04-20T18:05:55.835Z,21.47
2019-04-20T18:08:33.873Z,45.83
2019-04-20T18:10:54.976Z,25.00
2019-04-20T18:13:23.627Z,14.90
2019-04-20T18:16:18.265Z,9.73
2019-04-20T18:18:57.435Z,9.07
2019-04-20T18:21:30.770Z,9.53
2019-04-20T18:24:05.246Z,12.77
2019-04-20T18:26:51.957Z,9.07
2019-04-20T18:29:35.614Z,20.80
2019-04-20T18:32:05.631Z,36.87
2019-04-20T18:34:56.185Z,26.23
2019-04-20T18:37:28.658Z,32.87
2019-04-20T18:40:06.213Z,91.03
2019-04-20T18:42:38.892Z,149.97
2019-04-20T18:45:26.732Z,119.07
2019-04-20T18:48:04.814Z,68.90
2019-04-20T18:50:24.451Z,83.07
2019-04-20T18:52:51.648Z,112.47
2019-04-20T18:55:36.020Z,84.03
2019-04-20T18:57:57.571Z,90.63
2019-04-20T19:00:33.865Z,80.40
2019-04-20T19:03:14.420Z,55.10
2019-04-20T19:05:39.897Z,54.50
2019-04-20T19:08:14.023Z,26.77
2019-04-20T19:10:54.148Z,21.33
2019-04-20T19:13:36.757Z,47.93
2019-04-20T19:16:33.436Z,48.57
2019-04-20T19:19:20.113Z,47.33
2019-04-20T19:21:41.456Z,30.13
2019-04-20T19:24:16.919Z,39.00
2019-04-20T19:26:52.552Z,70.30
2019-04-20T19:29:30.085Z,39.43
2019-04-20T19:32:11.516Z,29.90
2019-04-20T19:34:43.256Z,74.30
2019-04-20T19:37:14.219Z,60.73
2019-04-20T19:39:49.345Z,47.20
2019-04-20T19:42:31.228Z,64.60
2019-04-20T19:45:05.534Z,57.27
2019-04-20T19:47:38.439Z,41.77
2019-04-20T19:50:26.701Z,45.90
2019-04-20T19:52:58.324Z,36.50
2019-04-20T19:55:23.702Z,32.90
2019-04-20T19:57:50.416Z,29.90
2019-04-20T20:00:11.453Z,25.50
2019-04-20T20:02:45.702Z,28.80
2019-04-20T20:05:22.875Z,26.57
2019-04-20T20:07:57.410Z,32.57
2019-04-20T20:10:29.905Z,31.37
2019-04-20T20:13:02.346Z,20.03
2019-04-20T20:15:36.415Z,20.73
2019-04-20T20:18:27.447Z,21.10
2019-04-20T20:20:59.575Z,22.00
2019-04-20T20:23:23.955Z,23.83
2019-04-20T20:25:57.148Z,44.60
2019-04-20T20:28:38.220Z,30.60
2019-04-20T20:31:16.326Z,28.70
2019-04-20T20:33:53.447Z,29.37
2019-04-20T20:36:15.631Z,26.37
2019-04-20T20:38:50.261Z,25.07
2019-04-20T20:41:26.242Z,24.77
2019-04-20T20:44:00.105Z,21.73
2019-04-20T20:46:32.853Z,27.30
2019-04-20T20:49:16.128Z,29.70
2019-04-20T20:52:09.813Z,31.03
2019-04-20T20:54:15.442Z,30.63
2019-04-20T20:56:51.429Z,27.60
2019-04-20T20:59:26.795Z,35.23
2019-04-20T21:01:54.045Z,33.27
2019-04-20T21:04:21.547Z,33.20
2019-04-20T21:06:54.786Z,35.13
2019-04-20T21:09:27.159Z,27.67
2019-04-20T21:12:04.834Z,23.63
2019-04-20T21:14:35.342Z,24.57
2019-04-20T21:17:15.186Z,26.47
2019-04-20T21:20:00.959Z,26.40
2019-04-20T21:22:25.884Z,28.53
2019-04-20T21:24:51.917Z,31.73
2019-04-20T21:27:25.826Z,33.17
2019-04-20T21:29:59.930Z,35.13
2019-04-20T21:32:34.585Z,42.70
2019-04-20T21:35:10.356Z,32.80
2019-04-20T21:37:43.414Z,34.50
2019-04-20T21:40:23.221Z,26.57
2019-04-20T21:42:53.576Z,23.87
2019-04-20T21:45:25.664Z,36.33
2019-04-20T21:47:54.565Z,33.07
2019-04-20T21:50:42.711Z,36.27
2019-04-20T21:53:08.696Z,44.83
2019-04-20T21:55:34.215Z,43.10
2019-04-20T21:58:07.241Z,40.57
2019-04-20T22:01:08.099Z,36.27
2019-04-20T22:03:32.176Z,24.63
2019-04-20T22:06:06.928Z,20.07
2019-04-20T22:08:44.480Z,16.47
2019-04-20T22:11:13.586Z,14.03
2019-04-20T22:13:47.639Z,15.10
2019-04-20T22:16:21.947Z,22.67
2019-04-20T22:19:10.405Z,17.67
2019-04-20T22:21:42.485Z,17.03
2019-04-20T22:24:10.491Z,19.93
2019-04-20T22:26:47.805Z,17.87
2019-04-20T22:29:08.005Z,22.27
2019-04-20T22:31:40.299Z,22.17
2019-04-20T22:34:17.416Z,19.93
2019-04-20T22:36:48.596Z,20.63
2019-04-20T22:39:31.972Z,19.50
2019-04-20T22:42:04.937Z,19.10
2019-04-20T22:44:34.349Z,18.97
2019-04-20T22:47:14.005Z,21.10
2019-04-20T22:49:52.893Z,20.93
2019-04-20T22:52:32.508Z,24.97
2019-04-20T22:55:00.700Z,34.10
2019-04-20T22:57:36.268Z,46.43
2019-04-20T23:00:02.523Z,54.40
2019-04-20T23:02:28.611Z,63.67
2019-04-20T23:05:02.719Z,71.97
2019-04-20T23:07:35.243Z,78.93
2019-04-20T23:10:08.810Z,78.43
2019-04-20T23:12:46.909Z,79.37
2019-04-20T23:15:14.621Z,77.07
2019-04-20T23:17:50.085Z,75.20
2019-04-20T23:20:25.283Z,73.83
2019-04-20T23:22:54.661Z,77.33
2019-04-20T23:25:27.103Z,72.03
2019-04-20T23:28:08.132Z,66.60
2019-04-20T23:30:37.516Z,60.63
2019-04-20T23:33:07.722Z,64.23
2019-04-20T23:35:44.934Z,46.47
2019-04-20T23:38:17.982Z,47.40
2019-04-20T23:40:47.837Z,46.30
2019-04-20T23:43:28.217Z,47.03
2019-04-20T23:46:25.998Z,50.63
2019-04-20T23:49:19.195Z,40.90
2019-04-20T23:52:03.613Z,44.07
2019-04-20T23:54:25.181Z,46.53
2019-04-20T23:56:53.592Z,59.40
2019-04-20T23:59:32.373Z,96.33
